createdAt,value
2018-12-19T00:00:02.913Z,0.1
2018-12-19T00:15:03.148Z,0
2018-12-19T00:30:02.488Z,-0.1
2018-12-19T00:45:02.805Z,-0.1
2018-12-19T01:00:03.127Z,-0.1
2018-12-19T01:15:03.446Z,-0.1
2018-12-19T01:30:02.885Z,-0.1
2018-12-19T01:45:03.335Z,-0.1
2018-12-19T02:00:02.642Z,-0.1
2018-12-19T02:15:02.969Z,-0.2
2018-12-19T02:30:02.533Z,-0.3
2018-12-19T02:45:03.052Z,-0.4
2018-12-19T03:00:02.562Z,-0.4
2018-12-19T03:15:02.885Z,-0.5
2018-12-19T03:30:03.278Z,-0.6
2018-12-19T03:45:02.746Z,-0.6
2018-12-19T04:00:03.029Z,-0.8
2018-12-19T04:15:03.378Z,-0.7
2018-12-19T04:30:02.756Z,-0.9
2018-12-19T04:45:03.205Z,-0.6
2018-12-19T05:00:02.511Z,-0.6
2018-12-19T05:15:02.987Z,-0.8
2018-12-19T05:30:03.280Z,-0.6
2018-12-19T05:45:02.535Z,-0.8
2018-12-19T06:00:02.785Z,-0.9
2018-12-19T06:15:03.355Z,-0.8
2018-12-19T06:30:03.078Z,-0.8
2018-12-19T06:45:03.449Z,-0.9
2018-12-19T07:00:03.800Z,-0.9
2018-12-19T07:15:03.217Z,-0.9
2018-12-19T07:30:02.595Z,-0.8
2018-12-19T07:45:02.873Z,-0.9
2018-12-19T08:00:03.356Z,-0.8
2018-12-19T08:15:02.679Z,-0.8
2018-12-19T08:30:02.975Z,-0.6
2018-12-19T08:45:03.218Z,-0.6
2018-12-19T09:00:02.756Z,-0.4
2018-12-19T09:15:03.041Z,-0.2
2018-12-19T09:30:02.606Z,-0.1
2018-12-19T09:45:02.895Z,0.2
2018-12-19T10:00:03.461Z,0.2
2018-12-19T10:15:02.896Z,0.4
2018-12-19T10:30:03.191Z,0.6
2018-12-19T10:45:02.527Z,0.6
2018-12-19T11:00:02.732Z,1
2018-12-19T11:15:03.296Z,0.9
2018-12-19T11:30:03.399Z,1.1
2018-12-19T11:45:02.616Z,1.3
2018-12-19T12:00:02.922Z,1.6
2018-12-19T12:15:03.283Z,1.6
2018-12-19T12:30:02.703Z,1.5
2018-12-19T12:45:02.901Z,1.2
2018-12-19T13:00:03.086Z,1.1
2018-12-19T13:15:03.409Z,1.1
2018-12-19T13:30:02.781Z,1
2018-12-19T13:45:03.124Z,0.9
2018-12-19T14:00:03.439Z,0.9
2018-12-19T14:15:02.965Z,0.8
2018-12-19T14:30:03.297Z,0.9
2018-12-19T14:45:02.657Z,0.8
2018-12-19T15:00:03.130Z,0.8
2018-12-19T15:15:02.606Z,0.7
2018-12-19T15:30:03.058Z,0.6
2018-12-19T15:45:02.570Z,0.4
2018-12-19T16:00:03.047Z,0.3
2018-12-19T16:15:02.492Z,0.3
2018-12-19T16:30:03.101Z,0.2
2018-12-19T16:45:02.659Z,0.1
2018-12-19T17:00:03.058Z,0.1
2018-12-19T17:15:03.347Z,0.1
2018-12-19T17:30:02.853Z,0.1
2018-12-19T17:45:03.357Z,0.1
2018-12-19T18:00:02.649Z,0.2
2018-12-19T18:15:03.147Z,0.2
2018-12-19T18:30:03.399Z,0.2
2018-12-19T18:45:04.234Z,0.1
2018-12-19T19:00:02.575Z,-0.1
2018-12-19T19:15:02.892Z,-0.3
2018-12-19T19:30:03.279Z,-0.4
2018-12-19T19:45:02.825Z,-0.6
2018-12-19T20:00:02.957Z,-0.7
2018-12-19T20:15:03.310Z,-0.9
2018-12-19T20:30:02.817Z,-0.9
2018-12-19T20:45:03.087Z,-0.8
2018-12-19T21:00:02.699Z,-0.9
2018-12-19T21:15:03.072Z,-0.9
2018-12-19T21:30:03.374Z,-0.8
2018-12-19T21:45:02.894Z,-0.7
2018-12-19T22:00:03.361Z,-0.7
2018-12-19T22:15:02.969Z,-0.6
2018-12-19T22:30:03.310Z,-0.6
2018-12-19T22:45:02.572Z,-0.6
2018-12-19T23:00:03.012Z,-0.6
2018-12-19T23:15:03.304Z,-0.6
2018-12-19T23:30:02.971Z,-0.7
2018-12-19T23:45:03.165Z,-0.8
